Seneca Rocks, WV

8:55 PM EDT on September 30, 2014 (GMT -0400)
Dogs Run Farm | Change Station
CLOSE
Current Station
Personal Weather Station
Location: Dryfork, WV
Elevation: 2910 ft
Nearby Weather Stations

Elev 2910 ft 38.98 °N, 79.43 °W | Updated 3 minutes ago

Mostly Cloudy
Mostly Cloudy
54.1 °F
Feels Like 54.1 °F
N
0.0
Wind Variable Wind from WNW

Today
High -- | Low -- °F
--% Chance of Precip.
Yesterday
High -- | Low -- °F
Precip. -- in
7:12 AM 7:01 PM
Waxing Crescent, 42% visible
Pressure 29.97 in
Visibility 10.0 miles
Clouds Mostly Cloudy 6500 ft
Dew Point 51 °F
Humidity 89%
Rainfall 0.00 in
Snow Depth Not available.
UV 0 out of 12
Pollen 3.20 out of 12
Air Quality Not available.
Flu Activity Not available.
METAR KEKN 302351Z AUTO 27003KT 10SM BKN065 15/12 A2996 RMK AO2 SLP147 T01500122 10250 20150 51016 TSNO

More Conditions Fewer Conditions

Pressure 29.97 in
Visibility 10.0 miles
Clouds Mostly Cloudy 6500 ft
Dew Point 51 °F
Humidity 89%
Rainfall 0.00 in
Snow Depth Not available.
UV 0 out of 12
Pollen 3.20 out of 12
Air Quality Not available.
Flu Activity Not available.
METAR KEKN 302351Z AUTO 27003KT 10SM BKN065 15/12 A2996 RMK AO2 SLP147 T01500122 10250 20150 51016 TSNO

More Conditions Fewer Conditions

10-Day Weather Forecast

Almanac

Astronomy

Sep. 30, 2014 Rise Set
Actual Time 7:12 AM EDT 7:01 PM EDT
Civil Twilight 6:45 AM EDT 7:28 PM EDT
Nautical Twilight 6:15 AM EDT 7:59 PM EDT
Astronomical Twilight 5:43 AM EDT 8:30 PM EDT
Moon 1:16 PM EDT (9/30) 11:32 PM EDT (9/30)
Length of Visible Light 12h 42m
Length of Day
11h 49m
Tomorrow will be 2m 30s shorter.
Waxing Crescent, 42% of the Moon is Illuminated
Today
Waxing Crescent
Oct 1
First Quarter
Oct 8
Full
Oct 15
Last Quarter
Oct 23
New

Today's Extremes

State Highs State Lows

Community

WunderPhotos

Upload Photos

1,757,801 photos uploaded!

Nearby

Snow Depth

Station Depth Elevation
No new snow has been reported.

Earthquake Activity

City Distance Mag. Time & Date
No recent earthquake activity has been reported nearby.
Minimum magnitude displayed is 2.5.

Coastal Water Temperatures

Place Temperature
No Stations Reporting

Nearby Weather Stations